createdAt,value
2018-08-24T00:00:17.460Z,1006.94
2018-08-24T00:01:17.436Z,1006.92
2018-08-24T00:02:17.470Z,1006.94
2018-08-24T00:03:17.446Z,1006.98
2018-08-24T00:04:17.441Z,1007.00
2018-08-24T00:05:17.442Z,1006.99
2018-08-24T00:06:17.435Z,1007.02
2018-08-24T00:07:17.482Z,1007.01
2018-08-24T00:08:17.423Z,1007.01
2018-08-24T00:09:17.416Z,1007.02
2018-08-24T00:10:17.431Z,1007.06
2018-08-24T00:11:17.415Z,1007.09
2018-08-24T00:12:17.419Z,1007.18
2018-08-24T00:13:17.410Z,1007.22
2018-08-24T00:14:17.404Z,1007.20
2018-08-24T00:15:17.398Z,1007.17
2018-08-24T00:16:17.399Z,1007.16
2018-08-24T00:17:17.402Z,1007.15
2018-08-24T00:18:17.392Z,1007.18
2018-08-24T00:19:17.401Z,1007.21
2018-08-24T00:20:17.405Z,1007.18
2018-08-24T00:21:17.391Z,1007.16
2018-08-24T00:22:17.377Z,1007.16
2018-08-24T00:23:17.377Z,1007.10
2018-08-24T00:24:17.368Z,1007.10
2018-08-24T00:25:17.368Z,1007.12
2018-08-24T00:26:17.370Z,1007.09
2018-08-24T00:27:17.365Z,1007.10
2018-08-24T00:28:17.376Z,1007.11
2018-08-24T00:29:17.355Z,1007.14
2018-08-24T00:30:17.390Z,1007.16
2018-08-24T00:31:17.350Z,1007.11
2018-08-24T00:32:17.353Z,1007.15
2018-08-24T00:33:17.356Z,1007.11
2018-08-24T00:34:17.342Z,1007.15
2018-08-24T00:35:17.332Z,1007.17
2018-08-24T00:36:17.338Z,1007.15
2018-08-24T00:37:17.339Z,1007.11
2018-08-24T00:38:17.338Z,1007.11
2018-08-24T00:39:17.340Z,1007.12
2018-08-24T00:40:17.326Z,1007.09
2018-08-24T00:41:17.318Z,1007.07
2018-08-24T00:42:17.327Z,1007.07
2018-08-24T00:43:17.328Z,1007.07
2018-08-24T00:44:17.317Z,1007.08
2018-08-24T00:45:17.322Z,1007.11
2018-08-24T00:46:17.307Z,1007.08
2018-08-24T00:47:17.297Z,1007.07
2018-08-24T00:48:17.303Z,1007.05
2018-08-24T00:49:17.289Z,1007.09
2018-08-24T00:50:17.288Z,1007.06
2018-08-24T00:51:17.290Z,1007.06
2018-08-24T00:52:17.286Z,1007.03
2018-08-24T00:53:17.277Z,1007.02
2018-08-24T00:54:17.289Z,1007.06
2018-08-24T00:55:17.281Z,1007.04
2018-08-24T00:56:17.286Z,1007.07
2018-08-24T00:57:17.268Z,1007.06
2018-08-24T00:58:17.265Z,1007.03
2018-08-24T00:59:17.264Z,1007.08
2018-08-24T01:00:17.254Z,1007.08
2018-08-24T01:01:17.256Z,1007.04
2018-08-24T01:02:17.265Z,1007.00
2018-08-24T01:03:17.264Z,1007.02
2018-08-24T01:04:17.245Z,1007.06
2018-08-24T01:05:17.254Z,1007.07
2018-08-24T01:06:17.237Z,1007.05
2018-08-24T01:07:17.241Z,1007.05
2018-08-24T01:08:17.231Z,1007.04
2018-08-24T01:09:17.256Z,1007.03
2018-08-24T01:10:17.230Z,1007.03
2018-08-24T01:11:17.227Z,1007.03
2018-08-24T01:12:17.218Z,1007.02
2018-08-24T01:13:17.232Z,1007.05
2018-08-24T01:14:17.222Z,1007.06
2018-08-24T01:15:17.211Z,1007.08
2018-08-24T01:16:17.215Z,1007.15
2018-08-24T01:17:17.201Z,1007.11
2018-08-24T01:18:17.208Z,1007.11
2018-08-24T01:19:17.199Z,1007.09
2018-08-24T01:20:17.188Z,1007.09
2018-08-24T01:21:17.198Z,1007.08
2018-08-24T01:22:17.194Z,1007.10
2018-08-24T01:23:17.199Z,1007.08
2018-08-24T01:24:17.184Z,1007.05
2018-08-24T01:25:17.182Z,1007.06
2018-08-24T01:26:17.189Z,1007.01
2018-08-24T01:27:17.176Z,1007.02
2018-08-24T01:28:17.172Z,1007.04
2018-08-24T01:29:17.182Z,1006.97
2018-08-24T01:30:17.159Z,1006.97
2018-08-24T01:31:17.162Z,1006.95
2018-08-24T01:32:17.180Z,1006.98
2018-08-24T01:33:17.167Z,1006.95
2018-08-24T01:34:17.157Z,1006.98
2018-08-24T01:35:17.157Z,1006.94
2018-08-24T01:36:17.175Z,1006.95
2018-08-24T01:37:17.143Z,1006.96
2018-08-24T01:38:17.150Z,1006.95
2018-08-24T01:39:17.132Z,1006.91
2018-08-24T01:40:17.134Z,1006.93
2018-08-24T01:41:17.129Z,1006.89
2018-08-24T01:42:17.129Z,1006.92
2018-08-24T01:43:17.135Z,1006.91
2018-08-24T01:44:17.117Z,1006.90
2018-08-24T01:45:17.123Z,1006.88
2018-08-24T01:46:17.114Z,1006.90
2018-08-24T01:47:17.104Z,1006.91
2018-08-24T01:48:17.108Z,1006.88
2018-08-24T01:49:17.109Z,1006.87
2018-08-24T01:50:17.103Z,1006.85
2018-08-24T01:51:17.100Z,1006.86
2018-08-24T01:52:17.092Z,1006.86
2018-08-24T01:53:17.089Z,1006.86
2018-08-24T01:54:17.093Z,1006.83
2018-08-24T01:55:17.084Z,1006.88
2018-08-24T01:56:17.082Z,1006.83
2018-08-24T01:57:17.084Z,1006.82
2018-08-24T01:58:17.087Z,1006.79
2018-08-24T01:59:17.067Z,1006.77
2018-08-24T02:00:17.078Z,1006.78
2018-08-24T02:01:17.063Z,1006.76
2018-08-24T02:02:17.064Z,1006.78
2018-08-24T02:03:17.059Z,1006.81
2018-08-24T02:04:17.058Z,1006.83
2018-08-24T02:05:17.062Z,1006.85
2018-08-24T02:06:17.052Z,1006.85
2018-08-24T02:07:17.056Z,1006.89
2018-08-24T02:08:17.046Z,1006.90
2018-08-24T02:09:17.043Z,1006.87
2018-08-24T02:10:17.042Z,1006.92
2018-08-24T02:11:17.033Z,1006.93
2018-08-24T02:12:17.038Z,1006.94
2018-08-24T02:13:17.039Z,1006.95
2018-08-24T02:14:17.072Z,1006.96
2018-08-24T02:15:17.013Z,1006.96
2018-08-24T02:16:17.026Z,1006.92
2018-08-24T02:17:17.017Z,1006.93
2018-08-24T02:18:17.012Z,1006.99
2018-08-24T02:19:17.015Z,1006.99
2018-08-24T02:20:17.028Z,1007.01
2018-08-24T02:21:16.998Z,1006.99
2018-08-24T02:22:17.002Z,1006.99
2018-08-24T02:23:16.992Z,1007.02
2018-08-24T02:24:17.002Z,1007.02
2018-08-24T02:25:17.029Z,1006.99
2018-08-24T02:26:16.993Z,1006.98
2018-08-24T02:27:16.981Z,1007.01
2018-08-24T02:28:16.993Z,1006.97
2018-08-24T02:29:16.977Z,1006.99
2018-08-24T02:30:16.977Z,1007.02
2018-08-24T02:31:17.059Z,1007.00
2018-08-24T02:32:16.978Z,1007.01
2018-08-24T02:33:16.961Z,1007.00
2018-08-24T02:34:16.960Z,1007.02
2018-08-24T02:35:16.949Z,1007.05
2018-08-24T02:36:16.957Z,1007.07
2018-08-24T02:37:16.951Z,1007.04
2018-08-24T02:38:16.940Z,1007.01
2018-08-24T02:39:16.953Z,1007.03
2018-08-24T02:40:16.938Z,1007.02
2018-08-24T02:41:16.939Z,1007.01
2018-08-24T02:42:16.929Z,1007.01
2018-08-24T02:43:16.933Z,1006.96
2018-08-24T02:44:16.929Z,1006.99
2018-08-24T02:45:16.918Z,1006.95
2018-08-24T02:46:16.923Z,1006.92
2018-08-24T02:47:16.924Z,1006.92
2018-08-24T02:48:16.914Z,1006.95
2018-08-24T02:49:16.904Z,1006.91
2018-08-24T02:50:16.914Z,1006.88
2018-08-24T02:51:16.910Z,1006.88
2018-08-24T02:52:16.898Z,1006.86
2018-08-24T02:53:16.900Z,1006.87
2018-08-24T02:54:16.903Z,1006.87
2018-08-24T02:55:16.890Z,1006.89
2018-08-24T02:56:16.892Z,1006.91
2018-08-24T02:57:16.889Z,1006.90
2018-08-24T02:58:16.873Z,1006.87
2018-08-24T02:59:16.874Z,1006.92
2018-08-24T03:00:16.872Z,1006.92
2018-08-24T03:01:16.865Z,1006.92
2018-08-24T03:02:16.870Z,1006.95
2018-08-24T03:03:16.869Z,1006.95
2018-08-24T03:04:16.863Z,1006.93
2018-08-24T03:05:16.900Z,1006.94
2018-08-24T03:06:16.850Z,1006.95
2018-08-24T03:07:16.865Z,1006.98
2018-08-24T03:08:16.892Z,1006.93
2018-08-24T03:09:16.851Z,1006.97
2018-08-24T03:10:16.840Z,1006.95
2018-08-24T03:11:16.845Z,1006.96
2018-08-24T03:12:16.841Z,1006.98
2018-08-24T03:13:16.833Z,1006.96
2018-08-24T03:14:16.829Z,1006.97
2018-08-24T03:15:16.824Z,1006.96
2018-08-24T03:16:16.862Z,1007.00
2018-08-24T03:17:16.810Z,1007.01
2018-08-24T03:18:16.819Z,1006.98
2018-08-24T03:19:16.821Z,1007.01
2018-08-24T03:20:16.823Z,1007.00
2018-08-24T03:21:16.808Z,1007.05
2018-08-24T03:22:16.804Z,1007.06
2018-08-24T03:23:16.796Z,1007.07
2018-08-24T03:24:16.799Z,1007.06
2018-08-24T03:25:16.795Z,1007.09
2018-08-24T03:26:16.785Z,1007.08
2018-08-24T03:27:16.785Z,1007.07
2018-08-24T03:28:16.784Z,1007.06
2018-08-24T03:29:16.790Z,1007.07
2018-08-24T03:30:16.783Z,1007.10
2018-08-24T03:31:16.816Z,1007.09
2018-08-24T03:32:16.769Z,1007.11
2018-08-24T03:33:16.766Z,1007.11
2018-08-24T03:34:16.769Z,1007.13
2018-08-24T03:35:16.759Z,1007.13
2018-08-24T03:36:16.760Z,1007.13
2018-08-24T03:37:16.760Z,1007.10
2018-08-24T03:38:16.753Z,1007.11
2018-08-24T03:39:16.754Z,1007.09
2018-08-24T03:40:16.746Z,1007.09
2018-08-24T03:41:16.740Z,1007.10
2018-08-24T03:42:16.740Z,1007.11
2018-08-24T03:43:16.734Z,1007.16
2018-08-24T03:44:16.734Z,1007.15
2018-08-24T03:45:16.729Z,1007.16
2018-08-24T03:46:16.721Z,1007.18
2018-08-24T03:47:16.729Z,1007.17
2018-08-24T03:48:16.719Z,1007.21
2018-08-24T03:49:16.710Z,1007.19
2018-08-24T03:50:16.718Z,1007.20
2018-08-24T03:51:16.706Z,1007.20
2018-08-24T03:52:16.712Z,1007.18
2018-08-24T03:53:16.750Z,1007.20
2018-08-24T03:54:16.704Z,1007.15
2018-08-24T03:55:16.695Z,1007.16
2018-08-24T03:56:16.704Z,1007.19
2018-08-24T03:57:16.693Z,1007.18
2018-08-24T03:58:16.689Z,1007.19
2018-08-24T03:59:16.685Z,1007.19
2018-08-24T04:00:16.674Z,1007.15
2018-08-24T04:01:16.684Z,1007.17
2018-08-24T04:02:16.673Z,1007.17
2018-08-24T04:03:16.691Z,1007.15
2018-08-24T04:04:16.691Z,1007.10
2018-08-24T04:05:16.671Z,1007.09
2018-08-24T04:06:16.656Z,1007.11
2018-08-24T04:07:16.662Z,1007.06
2018-08-24T04:08:16.651Z,1007.08
2018-08-24T04:09:16.666Z,1007.08
2018-08-24T04:10:16.646Z,1007.06
2018-08-24T04:11:16.645Z,1007.06
2018-08-24T04:12:16.646Z,1007.04
2018-08-24T04:13:16.634Z,1007.06
2018-08-24T04:14:16.639Z,1007.11
2018-08-24T04:15:16.628Z,1007.09
2018-08-24T04:16:16.634Z,1007.08
2018-08-24T04:17:16.633Z,1007.04
2018-08-24T04:18:16.621Z,1007.07
2018-08-24T04:19:16.687Z,1007.07
2018-08-24T04:20:16.617Z,1007.05
2018-08-24T04:21:16.613Z,1007.01
2018-08-24T04:22:16.615Z,1007.05
2018-08-24T04:23:16.606Z,1007.04
2018-08-24T04:24:16.612Z,1007.07
2018-08-24T04:25:16.610Z,1007.07
2018-08-24T04:26:16.596Z,1007.07
2018-08-24T04:27:16.590Z,1007.04
2018-08-24T04:28:16.583Z,1007.06
2018-08-24T04:29:16.586Z,1007.09
2018-08-24T04:30:16.584Z,1007.07
2018-08-24T04:31:16.584Z,1007.07
2018-08-24T04:32:16.581Z,1007.09
2018-08-24T04:33:16.576Z,1007.10
2018-08-24T04:34:16.573Z,1007.15
2018-08-24T04:35:16.565Z,1007.12
2018-08-24T04:36:16.552Z,1007.15
2018-08-24T04:37:16.564Z,1007.13
2018-08-24T04:38:16.555Z,1007.18
2018-08-24T04:39:16.560Z,1007.15
2018-08-24T04:40:16.625Z,1007.20
2018-08-24T04:41:16.542Z,1007.14
2018-08-24T04:42:16.547Z,1007.21
2018-08-24T04:43:16.540Z,1007.19
2018-08-24T04:44:16.536Z,1007.21
2018-08-24T04:45:16.531Z,1007.22
2018-08-24T04:46:16.540Z,1007.22
2018-08-24T04:47:16.531Z,1007.25
2018-08-24T04:48:16.525Z,1007.26
2018-08-24T04:49:16.514Z,1007.26
2018-08-24T04:50:16.517Z,1007.23
2018-08-24T04:51:16.529Z,1007.31
2018-08-24T04:52:16.505Z,1007.27
2018-08-24T04:53:16.506Z,1007.29
2018-08-24T04:54:16.519Z,1007.29
2018-08-24T04:55:16.502Z,1007.34
2018-08-24T04:56:16.492Z,1007.29
2018-08-24T04:57:16.486Z,1007.32
2018-08-24T04:58:16.540Z,1007.30
2018-08-24T04:59:16.496Z,1007.36
2018-08-24T05:00:16.492Z,1007.33
2018-08-24T05:01:16.477Z,1007.37
2018-08-24T05:02:16.471Z,1007.37
2018-08-24T05:03:16.465Z,1007.35
2018-08-24T05:04:16.474Z,1007.36
2018-08-24T05:05:16.461Z,1007.39
2018-08-24T05:06:16.456Z,1007.38
2018-08-24T05:07:16.459Z,1007.37
2018-08-24T05:08:16.455Z,1007.37
2018-08-24T05:09:16.454Z,1007.36
2018-08-24T05:10:16.454Z,1007.35
2018-08-24T05:11:16.456Z,1007.34
2018-08-24T05:12:16.450Z,1007.34
2018-08-24T05:13:16.440Z,1007.30
2018-08-24T05:14:16.440Z,1007.39
2018-08-24T05:15:16.432Z,1007.38
2018-08-24T05:16:16.425Z,1007.36
2018-08-24T05:17:16.435Z,1007.36
2018-08-24T05:18:16.420Z,1007.40
2018-08-24T05:19:16.426Z,1007.45
2018-08-24T05:20:16.422Z,1007.46
2018-08-24T05:21:16.475Z,1007.45
2018-08-24T05:22:16.404Z,1007.44
2018-08-24T05:23:16.405Z,1007.42
2018-08-24T05:24:16.402Z,1007.44
2018-08-24T05:25:16.403Z,1007.43
2018-08-24T05:26:16.402Z,1007.40
2018-08-24T05:27:16.390Z,1007.47
2018-08-24T05:28:16.417Z,1007.48
2018-08-24T05:29:16.397Z,1007.45
2018-08-24T05:30:16.392Z,1007.47
2018-08-24T05:31:16.385Z,1007.47
2018-08-24T05:32:16.377Z,1007.46
2018-08-24T05:33:16.381Z,1007.51
2018-08-24T05:34:16.370Z,1007.47
2018-08-24T05:35:16.384Z,1007.50
2018-08-24T05:36:16.371Z,1007.49
2018-08-24T05:37:16.367Z,1007.53
2018-08-24T05:38:16.366Z,1007.56
2018-08-24T05:39:16.350Z,1007.54
2018-08-24T05:40:16.356Z,1007.56
2018-08-24T05:41:16.356Z,1007.59
2018-08-24T05:42:16.343Z,1007.60
2018-08-24T05:43:16.345Z,1007.56
2018-08-24T05:44:16.345Z,1007.58
2018-08-24T05:45:16.335Z,1007.57
2018-08-24T05:46:16.339Z,1007.57
2018-08-24T05:47:16.328Z,1007.57
2018-08-24T05:48:16.321Z,1007.59
2018-08-24T05:49:16.324Z,1007.55
2018-08-24T05:50:16.319Z,1007.60
2018-08-24T05:51:16.326Z,1007.62
2018-08-24T05:52:16.299Z,1007.59
2018-08-24T05:53:16.305Z,1007.59
2018-08-24T05:54:16.312Z,1007.58
2018-08-24T05:55:16.301Z,1007.54
2018-08-24T05:56:16.297Z,1007.55
2018-08-24T05:57:16.291Z,1007.55
2018-08-24T05:58:16.287Z,1007.51
2018-08-24T05:59:16.293Z,1007.54
2018-08-24T06:00:16.286Z,1007.54
2018-08-24T06:01:16.283Z,1007.56
2018-08-24T06:02:16.272Z,1007.55
2018-08-24T06:03:16.272Z,1007.52
2018-08-24T06:04:16.273Z,1007.55
2018-08-24T06:05:16.281Z,1007.55
2018-08-24T06:06:16.262Z,1007.59
2018-08-24T06:07:16.267Z,1007.56
2018-08-24T06:08:16.263Z,1007.55
2018-08-24T06:09:16.254Z,1007.53
2018-08-24T06:10:16.248Z,1007.54
2018-08-24T06:11:16.251Z,1007.50
2018-08-24T06:12:16.243Z,1007.55
2018-08-24T06:13:16.241Z,1007.52
2018-08-24T06:14:16.244Z,1007.55
2018-08-24T06:15:16.226Z,1007.53
2018-08-24T06:16:16.238Z,1007.54
2018-08-24T06:17:16.232Z,1007.53
2018-08-24T06:18:16.222Z,1007.54
2018-08-24T06:19:16.234Z,1007.51
2018-08-24T06:20:16.224Z,1007.57
2018-08-24T06:21:16.223Z,1007.56
2018-08-24T06:22:16.213Z,1007.55
2018-08-24T06:23:16.212Z,1007.59
2018-08-24T06:24:16.244Z,1007.59
2018-08-24T06:25:16.202Z,1007.58
2018-08-24T06:26:16.197Z,1007.61
2018-08-24T06:27:16.200Z,1007.59
2018-08-24T06:28:16.196Z,1007.66
2018-08-24T06:29:16.192Z,1007.63
2018-08-24T06:30:16.198Z,1007.65
2018-08-24T06:31:16.172Z,1007.60
2018-08-24T06:32:16.179Z,1007.63
2018-08-24T06:33:16.177Z,1007.65
2018-08-24T06:34:16.172Z,1007.67
2018-08-24T06:35:16.167Z,1007.70
2018-08-24T06:36:16.162Z,1007.73
2018-08-24T06:37:16.159Z,1007.80
2018-08-24T06:38:16.160Z,1007.79
2018-08-24T06:39:16.148Z,1007.79
2018-08-24T06:40:16.153Z,1007.83
2018-08-24T06:41:16.154Z,1007.82
2018-08-24T06:42:16.144Z,1007.81
2018-08-24T06:43:16.141Z,1007.77
2018-08-24T06:44:16.147Z,1007.78
2018-08-24T06:45:16.139Z,1007.89
2018-08-24T06:46:16.129Z,1007.91
2018-08-24T06:47:16.136Z,1007.90
2018-08-24T06:48:16.124Z,1007.94
2018-08-24T06:49:16.124Z,1007.94
2018-08-24T06:50:16.117Z,1007.96
2018-08-24T06:51:16.138Z,1007.98
2018-08-24T06:52:16.118Z,1007.99
2018-08-24T06:53:16.255Z,1007.95
2018-08-24T06:54:16.100Z,1008.01
2018-08-24T06:55:16.102Z,1008.01
2018-08-24T06:56:16.100Z,1008.04
2018-08-24T06:57:16.107Z,1008.04
2018-08-24T06:58:16.090Z,1008.02
2018-08-24T06:59:16.088Z,1008.01
2018-08-24T07:00:16.099Z,1008.06
2018-08-24T07:01:16.092Z,1008.07
2018-08-24T07:02:16.069Z,1008.06
2018-08-24T07:03:16.090Z,1008.10
2018-08-24T07:04:16.069Z,1008.11
2018-08-24T07:05:16.069Z,1008.06
2018-08-24T07:06:16.069Z,1008.13
2018-08-24T07:07:16.065Z,1008.11
2018-08-24T07:08:16.060Z,1008.08
2018-08-24T07:09:16.057Z,1008.10
2018-08-24T07:10:16.048Z,1008.10
2018-08-24T07:11:16.045Z,1008.11
2018-08-24T07:12:16.054Z,1008.13
2018-08-24T07:13:16.046Z,1008.12
2018-08-24T07:14:16.046Z,1008.14
2018-08-24T07:15:16.034Z,1008.12
2018-08-24T07:16:16.032Z,1008.16
2018-08-24T07:17:16.038Z,1008.17
2018-08-24T07:18:16.040Z,1008.16
2018-08-24T07:19:16.013Z,1008.16
2018-08-24T07:20:16.019Z,1008.18
2018-08-24T07:21:16.035Z,1008.15
2018-08-24T07:22:16.024Z,1008.18
2018-08-24T07:23:16.014Z,1008.26
2018-08-24T07:24:16.015Z,1008.26
2018-08-24T07:25:16.076Z,1008.27
2018-08-24T07:26:16.004Z,1008.32
2018-08-24T07:27:16.001Z,1008.29
2018-08-24T07:28:15.999Z,1008.24
2018-08-24T07:29:15.995Z,1008.28
2018-08-24T07:30:15.981Z,1008.28
2018-08-24T07:31:15.986Z,1008.30
2018-08-24T07:32:15.984Z,1008.30
2018-08-24T07:33:15.977Z,1008.33
2018-08-24T07:34:15.969Z,1008.32
2018-08-24T07:35:15.964Z,1008.32
2018-08-24T07:36:15.976Z,1008.34
2018-08-24T07:37:15.974Z,1008.37
2018-08-24T07:38:15.971Z,1008.37
2018-08-24T07:39:15.975Z,1008.37
2018-08-24T07:40:15.961Z,1008.42
2018-08-24T07:41:15.954Z,1008.44
2018-08-24T07:42:15.963Z,1008.46
2018-08-24T07:43:15.949Z,1008.43
2018-08-24T07:44:15.947Z,1008.46
2018-08-24T07:45:15.935Z,1008.46
2018-08-24T07:46:15.961Z,1008.50
2018-08-24T07:47:15.931Z,1008.43
2018-08-24T07:48:15.927Z,1008.46
2018-08-24T07:49:15.924Z,1008.46
2018-08-24T07:50:15.920Z,1008.45
2018-08-24T07:51:15.918Z,1008.45
2018-08-24T07:52:15.915Z,1008.44
2018-08-24T07:53:15.940Z,1008.45
2018-08-24T07:54:15.914Z,1008.48
2018-08-24T07:55:15.907Z,1008.46
2018-08-24T07:56:15.895Z,1008.52
2018-08-24T07:57:15.902Z,1008.54
2018-08-24T07:58:15.894Z,1008.54
2018-08-24T07:59:15.892Z,1008.52
2018-08-24T08:00:15.888Z,1008.60
2018-08-24T08:01:15.887Z,1008.59
2018-08-24T08:02:15.890Z,1008.60
2018-08-24T08:03:15.885Z,1008.58
2018-08-24T08:04:15.872Z,1008.56
2018-08-24T08:05:15.872Z,1008.56
2018-08-24T08:06:15.867Z,1008.53
2018-08-24T08:07:15.871Z,1008.54
2018-08-24T08:08:15.860Z,1008.55
2018-08-24T08:09:15.866Z,1008.52
2018-08-24T08:10:15.857Z,1008.53
2018-08-24T08:11:15.847Z,1008.53
2018-08-24T08:12:15.852Z,1008.59
2018-08-24T08:13:15.847Z,1008.56
2018-08-24T08:14:15.862Z,1008.57
2018-08-24T08:15:15.836Z,1008.59
2018-08-24T08:16:15.846Z,1008.60
2018-08-24T08:17:15.830Z,1008.58
2018-08-24T08:18:15.846Z,1008.62
2018-08-24T08:19:15.820Z,1008.61
2018-08-24T08:20:15.823Z,1008.60
2018-08-24T08:21:15.842Z,1008.63
2018-08-24T08:22:15.811Z,1008.65
2018-08-24T08:23:15.809Z,1008.64
2018-08-24T08:24:15.809Z,1008.70
2018-08-24T08:25:15.806Z,1008.71
2018-08-24T08:26:15.790Z,1008.72
2018-08-24T08:27:15.815Z,1008.76
2018-08-24T08:28:15.798Z,1008.77
2018-08-24T08:29:15.801Z,1008.77
2018-08-24T08:30:15.791Z,1008.72
2018-08-24T08:31:15.786Z,1008.71
2018-08-24T08:32:15.790Z,1008.71
2018-08-24T08:33:15.786Z,1008.73
2018-08-24T08:34:15.790Z,1008.68
2018-08-24T08:35:15.769Z,1008.70
2018-08-24T08:36:15.766Z,1008.68
2018-08-24T08:37:15.754Z,1008.73
2018-08-24T08:38:15.770Z,1008.74
2018-08-24T08:39:15.751Z,1008.79
2018-08-24T08:40:15.755Z,1008.77
2018-08-24T08:41:15.742Z,1008.77
2018-08-24T08:42:15.737Z,1008.85
2018-08-24T08:43:15.741Z,1008.86
2018-08-24T08:44:15.741Z,1008.86
2018-08-24T08:45:15.745Z,1008.87
2018-08-24T08:46:15.740Z,1008.89
2018-08-24T08:47:15.726Z,1008.88
2018-08-24T08:48:15.726Z,1008.88
2018-08-24T08:49:15.726Z,1008.90
2018-08-24T08:50:15.734Z,1008.93
2018-08-24T08:51:15.717Z,1009.00
2018-08-24T08:52:15.724Z,1008.97
2018-08-24T08:53:15.715Z,1009.01
2018-08-24T08:54:15.709Z,1009.09
2018-08-24T08:55:15.704Z,1009.06
2018-08-24T08:56:15.698Z,1008.98
2018-08-24T08:57:15.701Z,1009.00
2018-08-24T08:58:15.697Z,1009.04
2018-08-24T08:59:15.687Z,1009.00
2018-08-24T09:00:15.688Z,1009.00
2018-08-24T09:01:15.681Z,1008.99
2018-08-24T09:02:15.685Z,1009.04
2018-08-24T09:03:15.665Z,1009.07
2018-08-24T09:04:15.675Z,1009.03
2018-08-24T09:05:15.683Z,1009.07
2018-08-24T09:06:15.690Z,1009.08
2018-08-24T09:07:15.666Z,1009.13
2018-08-24T09:08:15.658Z,1009.17
2018-08-24T09:09:15.655Z,1009.13
2018-08-24T09:10:15.656Z,1009.13
2018-08-24T09:11:15.646Z,1009.18
2018-08-24T09:12:15.646Z,1009.17
2018-08-24T09:13:15.646Z,1009.18
2018-08-24T09:14:15.655Z,1009.21
2018-08-24T09:15:15.632Z,1009.17
2018-08-24T09:16:15.631Z,1009.20
2018-08-24T09:17:15.623Z,1009.23
2018-08-24T09:18:15.630Z,1009.22
2018-08-24T09:19:15.626Z,1009.28
2018-08-24T09:20:15.625Z,1009.26
2018-08-24T09:21:15.615Z,1009.26
2018-08-24T09:22:15.613Z,1009.24
2018-08-24T09:23:15.628Z,1009.30
2018-08-24T09:24:15.610Z,1009.30
2018-08-24T09:25:15.631Z,1009.26
2018-08-24T09:26:15.602Z,1009.27
2018-08-24T09:27:15.602Z,1009.23
2018-08-24T09:28:15.583Z,1009.26
2018-08-24T09:29:15.593Z,1009.28
2018-08-24T09:30:15.587Z,1009.28
2018-08-24T09:31:15.581Z,1009.31
2018-08-24T09:32:15.581Z,1009.31
2018-08-24T09:33:15.576Z,1009.34
2018-08-24T09:34:15.596Z,1009.36
2018-08-24T09:35:15.559Z,1009.34
2018-08-24T09:36:15.583Z,1009.40
2018-08-24T09:37:15.567Z,1009.36
2018-08-24T09:38:15.563Z,1009.35
2018-08-24T09:39:15.603Z,1009.38
2018-08-24T09:40:15.563Z,1009.34
2018-08-24T09:41:15.552Z,1009.40
2018-08-24T09:42:15.580Z,1009.40
2018-08-24T09:43:15.553Z,1009.32
2018-08-24T09:44:15.541Z,1009.37
2018-08-24T09:45:15.551Z,1009.37
2018-08-24T09:46:15.539Z,1009.36
2018-08-24T09:47:15.536Z,1009.36
2018-08-24T09:48:15.531Z,1009.32
2018-08-24T09:49:15.557Z,1009.32
2018-08-24T09:50:15.512Z,1009.36
2018-08-24T09:51:15.523Z,1009.32
2018-08-24T09:52:15.518Z,1009.37
2018-08-24T09:53:15.511Z,1009.34
2018-08-24T09:54:15.508Z,1009.33
2018-08-24T09:55:15.518Z,1009.33
2018-08-24T09:56:15.506Z,1009.31
2018-08-24T09:57:15.500Z,1009.30
2018-08-24T09:58:15.501Z,1009.32
2018-08-24T09:59:15.511Z,1009.28
2018-08-24T10:00:15.491Z,1009.25
2018-08-24T10:01:15.487Z,1009.28
2018-08-24T10:02:15.482Z,1009.22
2018-08-24T10:03:15.481Z,1009.20
2018-08-24T10:04:15.474Z,1009.24
2018-08-24T10:05:15.524Z,1009.20
2018-08-24T10:06:15.480Z,1009.19
2018-08-24T10:07:15.476Z,1009.21
2018-08-24T10:08:15.462Z,1009.16
2018-08-24T10:09:15.459Z,1009.20
2018-08-24T10:10:15.463Z,1009.20
2018-08-24T10:11:15.452Z,1009.21
2018-08-24T10:12:15.456Z,1009.21
2018-08-24T10:13:15.445Z,1009.26
2018-08-24T10:14:15.444Z,1009.22
2018-08-24T10:15:15.431Z,1009.20
2018-08-24T10:16:15.437Z,1009.20
2018-08-24T10:17:15.443Z,1009.18
2018-08-24T10:18:15.427Z,1009.34
2018-08-24T10:19:15.428Z,1009.34
2018-08-24T10:20:15.426Z,1009.34
2018-08-24T10:21:15.421Z,1009.34
2018-08-24T10:22:15.435Z,1009.32
2018-08-24T10:23:15.427Z,1009.29
2018-08-24T10:24:15.413Z,1009.31
2018-08-24T10:25:15.430Z,1009.28
2018-08-24T10:26:15.413Z,1009.23
2018-08-24T10:27:15.404Z,1009.31
2018-08-24T10:28:15.397Z,1009.28
2018-08-24T10:29:15.443Z,1009.25
2018-08-24T10:30:15.395Z,1009.29
2018-08-24T10:31:15.381Z,1009.37
2018-08-24T10:32:15.393Z,1009.32
2018-08-24T10:33:15.383Z,1009.35
2018-08-24T10:34:15.373Z,1009.39
2018-08-24T10:35:15.385Z,1009.41
2018-08-24T10:36:15.401Z,1009.44
2018-08-24T10:37:15.363Z,1009.35
2018-08-24T10:38:15.362Z,1009.37
2018-08-24T10:39:15.363Z,1009.30
2018-08-24T10:40:15.364Z,1009.30
2018-08-24T10:41:15.419Z,1009.25
2018-08-24T10:42:15.358Z,1009.25
2018-08-24T10:43:15.352Z,1009.27
2018-08-24T10:44:15.347Z,1009.25
2018-08-24T10:45:15.344Z,1009.25
2018-08-24T10:46:15.363Z,1009.25
2018-08-24T10:47:15.422Z,1009.25
2018-08-24T10:48:15.334Z,1009.22
2018-08-24T10:49:15.359Z,1009.28
2018-08-24T10:50:15.323Z,1009.19
2018-08-24T10:51:15.324Z,1009.19
2018-08-24T10:52:15.337Z,1009.26
2018-08-24T10:53:15.326Z,1009.31
2018-08-24T10:54:15.309Z,1009.29
2018-08-24T10:55:15.321Z,1009.28
2018-08-24T10:56:15.347Z,1009.28
2018-08-24T10:57:15.303Z,1009.36
2018-08-24T10:58:15.300Z,1009.31
2018-08-24T10:59:15.302Z,1009.26
2018-08-24T11:00:15.292Z,1009.30
2018-08-24T11:01:15.294Z,1009.33
2018-08-24T11:02:15.291Z,1009.29
2018-08-24T11:03:15.313Z,1009.31
2018-08-24T11:04:15.285Z,1009.34
2018-08-24T11:05:15.372Z,1009.28
2018-08-24T11:06:15.282Z,1009.28
2018-08-24T11:07:15.295Z,1009.34
2018-08-24T11:08:15.279Z,1009.30
2018-08-24T11:09:15.264Z,1009.23
2018-08-24T11:10:15.259Z,1009.28
2018-08-24T11:11:15.266Z,1009.35
2018-08-24T11:12:15.263Z,1009.27
2018-08-24T11:13:15.249Z,1009.26
2018-08-24T11:14:15.257Z,1009.30
2018-08-24T11:15:15.253Z,1009.31
2018-08-24T11:16:15.264Z,1009.34
2018-08-24T11:17:15.242Z,1009.31
2018-08-24T11:18:15.243Z,1009.32
2018-08-24T11:19:15.243Z,1009.31
2018-08-24T11:20:15.237Z,1009.38
2018-08-24T11:21:15.237Z,1009.40
2018-08-24T11:22:15.223Z,1009.37
2018-08-24T11:23:15.220Z,1009.27
2018-08-24T11:24:15.232Z,1009.32
2018-08-24T11:25:15.237Z,1009.34
2018-08-24T11:26:15.287Z,1009.38
2018-08-24T11:27:15.228Z,1009.33
2018-08-24T11:28:15.208Z,1009.37
2018-08-24T11:29:15.248Z,1009.33
2018-08-24T11:30:15.203Z,1009.34
2018-08-24T11:31:15.194Z,1009.32
2018-08-24T11:32:15.199Z,1009.32
2018-08-24T11:33:15.194Z,1009.35
2018-08-24T11:34:15.205Z,1009.33
2018-08-24T11:35:15.178Z,1009.36
2018-08-24T11:36:15.230Z,1009.26
2018-08-24T11:37:15.185Z,1009.25
2018-08-24T11:38:15.173Z,1009.35
2018-08-24T11:39:15.173Z,1009.32
2018-08-24T11:40:15.176Z,1009.38
2018-08-24T11:41:15.173Z,1009.38
2018-08-24T11:42:15.215Z,1009.37
2018-08-24T11:43:15.171Z,1009.35
2018-08-24T11:44:15.164Z,1009.35
2018-08-24T11:45:15.157Z,1009.35
2018-08-24T11:46:15.143Z,1009.34
2018-08-24T11:47:15.138Z,1009.35
2018-08-24T11:48:15.147Z,1009.31
2018-08-24T11:49:15.158Z,1009.28
2018-08-24T11:50:15.150Z,1009.35
2018-08-24T11:51:15.140Z,1009.33
2018-08-24T11:52:15.134Z,1009.42
2018-08-24T11:53:15.128Z,1009.36
2018-08-24T11:54:15.179Z,1009.41
2018-08-24T11:55:15.131Z,1009.43
2018-08-24T11:56:15.137Z,1009.41
2018-08-24T11:57:15.109Z,1009.42
2018-08-24T11:58:15.127Z,1009.37
2018-08-24T11:59:15.114Z,1009.33
2018-08-24T12:00:15.101Z,1009.42
2018-08-24T12:01:15.102Z,1009.37
2018-08-24T12:02:15.107Z,1009.35
2018-08-24T12:03:15.084Z,1009.42
2018-08-24T12:04:15.100Z,1009.38
2018-08-24T12:05:15.094Z,1009.36